Back to Top

Language: 

My Weather Underground Personal Weather Station Historical Data with Graphs...

Delerius Weather Station Historical Data
Daily Summary for January 11, 2018 Units:  English    Metric   Both
« Previous Day
Next Day »
Daily Weekly Monthly Yearly Custom
  High: Low: Average:
Temperature: 45.7 °F 40.8 °F 42.9 °F
Dew Point: 42.5 °F 38.9 °F 40.8 °F
Humidity: 96 % 85 % 92 %
Wind Speed: 8.0 mph 0.0 mph 1.9 mph
Wind Gust: 12.0 mph - -
Wind:- - WNW
Pressure: 30.31 in 29.83 in -
Precipitation: 0.01 in    
Historical Graphs
 
 
Tabular Data for January 11, 2018
Time Temperature Dew Point Pressure Wind Wind Speed Wind Gust Humidity Rainfall Rate (Hourly) solar Conditions
00:04 41.4 °F 39.5 °F 29.83 in Calm   1.0 mph 93 % 0.00 in 0 W/m2
00:09 41.4 °F 39.5 °F 29.83 in NW 1.0 mph 5.0 mph 93 % 0.00 in 0 W/m2
00:18 41.4 °F 39.5 °F 29.84 in WNW 3.0 mph 6.0 mph 93 % 0.00 in 0 W/m2
00:23 41.4 °F 39.5 °F 29.84 in NW 1.0 mph 4.0 mph 93 % 0.00 in 0 W/m2
00:52 41.4 °F 39.5 °F 29.85 in Calm   1.0 mph 93 % 0.00 in 0 W/m2
01:04 41.4 °F 39.5 °F 29.85 in NNW 3.0 mph 7.0 mph 93 % 0.00 in 0 W/m2
01:06 41.4 °F 39.5 °F 29.85 in NNW 2.0 mph 6.0 mph 93 % 0.00 in 0 W/m2
01:07 41.4 °F 39.5 °F 29.85 in NNW 2.0 mph 6.0 mph 93 % 0.00 in 0 W/m2
01:08 41.4 °F 39.5 °F 29.85 in NNW 1.0 mph 4.0 mph 93 % 0.00 in 0 W/m2
01:10 41.4 °F 39.5 °F 29.85 in NNW 1.0 mph 4.0 mph 93 % 0.00 in 0 W/m2
01:14 41.4 °F 39.5 °F 29.85 in NNW 3.0 mph 7.0 mph 93 % 0.00 in 0 W/m2
01:28 41.4 °F 39.5 °F 29.86 in NW 1.0 mph 3.0 mph 93 % 0.00 in 0 W/m2
01:39 41.4 °F 39.5 °F 29.86 in NW 1.0 mph 3.0 mph 93 % 0.00 in 0 W/m2
01:48 41.4 °F 39.5 °F 29.87 in Calm   4.0 mph 93 % 0.00 in 0 W/m2
02:03 41.4 °F 39.5 °F 29.87 in NW 2.0 mph 6.0 mph 93 % 0.00 in 0 W/m2
02:08 41.4 °F 39.5 °F 29.87 in NW 2.0 mph 6.0 mph 93 % 0.00 in 0 W/m2
02:17 41.4 °F 39.5 °F 29.88 in NW 2.0 mph 5.0 mph 93 % 0.00 in 0 W/m2
02:23 41.4 °F 39.5 °F 29.88 in NW 2.0 mph 5.0 mph 93 % 0.00 in 0 W/m2
02:25 41.4 °F 39.5 °F 29.89 in NW 2.0 mph 6.0 mph 93 % 0.00 in 0 W/m2
02:35 41.4 °F 39.5 °F 29.89 in NW 2.0 mph 7.0 mph 93 % 0.00 in 0 W/m2
02:40 41.4 °F 39.5 °F 29.89 in NW 1.0 mph 4.0 mph 93 % 0.00 in 0 W/m2
02:49 41.4 °F 39.5 °F 29.89 in NW 2.0 mph 5.0 mph 93 % 0.00 in 0 W/m2
02:57 41.4 °F 39.5 °F 29.90 in Calm   2.0 mph 93 % 0.00 in 0 W/m2
03:09 41.4 °F 39.5 °F 29.90 in NW 2.0 mph 5.0 mph 93 % 0.00 in 0 W/m2
03:18 41.4 °F 39.5 °F 29.90 in Calm     93 % 0.00 in 0 W/m2
03:31 41.4 °F 39.5 °F 29.91 in Calm   2.0 mph 93 % 0.00 in 0 W/m2
03:36 41.4 °F 39.5 °F 29.91 in Calm   1.0 mph 93 % 0.00 in 0 W/m2
03:41 41.4 °F 39.5 °F 29.91 in NW 2.0 mph 6.0 mph 93 % 0.00 in 0 W/m2
03:46 41.4 °F 39.5 °F 29.91 in WNW 1.0 mph 4.0 mph 93 % 0.00 in 0 W/m2
03:55 41.4 °F 39.5 °F 29.91 in WNW 1.0 mph 2.0 mph 93 % 0.00 in 0 W/m2
04:06 41.4 °F 39.5 °F 29.92 in WNW 1.0 mph 2.0 mph 93 % 0.00 in 0 W/m2
04:11 41.4 °F 39.5 °F 29.92 in WNW 1.0 mph 2.0 mph 93 % 0.00 in 0 W/m2
04:16 41.4 °F 39.5 °F 29.92 in Calm   1.0 mph 93 % 0.00 in 0 W/m2
04:25 41.4 °F 39.5 °F 29.93 in Calm   1.0 mph 93 % 0.00 in 0 W/m2
04:33 41.2 °F 39.3 °F 29.93 in WNW 1.0 mph 2.0 mph 93 % 0.00 in 0 W/m2
04:38 41.2 °F 39.3 °F 29.94 in Calm     93 % 0.00 in 0 W/m2
04:43 41.2 °F 39.3 °F 29.94 in Calm     93 % 0.00 in 0 W/m2
04:50 41.2 °F 39.3 °F 29.94 in WNW 1.0 mph 3.0 mph 93 % 0.00 in 0 W/m2
04:58 41.2 °F 39.3 °F 29.94 in WNW 1.0 mph 4.0 mph 93 % 0.00 in 0 W/m2
05:13 41.2 °F 39.3 °F 29.95 in Calm     93 % 0.00 in 0 W/m2
05:39 41.2 °F 39.3 °F 29.97 in Calm     93 % 0.00 in 0 W/m2
05:44 41.0 °F 39.1 °F 29.97 in Calm     93 % 0.00 in 0 W/m2
05:49 41.0 °F 38.9 °F 29.97 in Calm     92 % 0.00 in 0 W/m2
05:56 41.0 °F 39.1 °F 29.98 in Calm     93 % 0.00 in 0 W/m2
06:06 40.8 °F 39.0 °F 29.98 in Calm     93 % 0.00 in 0 W/m2
06:11 41.0 °F 39.1 °F 29.99 in Calm   3.0 mph 93 % 0.00 in 0 W/m2
06:16 41.0 °F 39.1 °F 29.99 in NW 1.0 mph 4.0 mph 93 % 0.00 in 0 W/m2
06:24 41.2 °F 39.3 °F 30.00 in NNW 1.0 mph 4.0 mph 93 % 0.00 in 0 W/m2
06:30 41.4 °F 39.5 °F 30.00 in NNW 3.0 mph 7.0 mph 93 % 0.00 in 0 W/m2
06:36 41.5 °F 39.7 °F 30.00 in Calm   1.0 mph 93 % 0.00 in 0 W/m2
06:41 41.5 °F 39.7 °F 30.00 in Calm   2.0 mph 93 % 0.00 in 0 W/m2
06:50 41.5 °F 39.7 °F 30.01 in NNW 2.0 mph 5.0 mph 93 % 0.00 in 0 W/m2
07:08 41.7 °F 39.8 °F 30.02 in NNW 1.0 mph 3.0 mph 93 % 0.00 in 0 W/m2
07:16 41.9 °F 39.7 °F 30.02 in NNW 1.0 mph 3.0 mph 92 % 0.00 in 0 W/m2
07:21 41.9 °F 39.7 °F 30.02 in NNW 1.0 mph 3.0 mph 92 % 0.00 in 0 W/m2
07:26 41.9 °F 40.0 °F 30.02 in NNW 2.0 mph 5.0 mph 93 % 0.00 in 0 W/m2
07:43 41.9 °F 40.0 °F 30.03 in Calm   1.0 mph 93 % 0.00 in 0 W/m2
07:48 41.9 °F 40.0 °F 30.03 in NW 1.0 mph 2.0 mph 93 % 0.00 in 0 W/m2
07:54 41.9 °F 40.0 °F 30.03 in Calm   2.0 mph 93 % 0.00 in 0 W/m2
07:59 41.9 °F 40.0 °F 30.04 in NW 1.0 mph 3.0 mph 93 % 0.00 in 0 W/m2
08:08 41.9 °F 40.0 °F 30.05 in NW 1.0 mph 2.0 mph 93 % 0.00 in 0 W/m2
08:14 41.9 °F 40.0 °F 30.05 in WNW 1.0 mph 4.0 mph 93 % 0.00 in 0 W/m2
08:21 42.1 °F 40.2 °F 30.05 in NW 3.0 mph 5.0 mph 93 % 0.00 in 0 W/m2
08:31 42.1 °F 40.2 °F 30.05 in NW 3.0 mph 7.0 mph 93 % 0.00 in 0 W/m2
08:37 41.9 °F 40.0 °F 30.05 in NW 2.0 mph 5.0 mph 93 % 0.00 in 0 W/m2
08:42 41.9 °F 40.0 °F 30.06 in NW 4.0 mph 7.0 mph 93 % 0.00 in 5 W/m2
08:51 42.1 °F 40.2 °F 30.06 in WNW 2.0 mph 5.0 mph 93 % 0.00 in 7 W/m2
08:56 41.9 °F 40.0 °F 30.07 in NW 3.0 mph 6.0 mph 93 % 0.00 in 11 W/m2
09:02 41.9 °F 40.0 °F 30.07 in NW 5.0 mph 10.0 mph 93 % 0.00 in 12 W/m2
09:24 41.9 °F 39.7 °F 30.07 in NW 5.0 mph 10.0 mph 92 % 0.00 in 37 W/m2
09:41 42.3 °F 39.8 °F 30.08 in WNW 5.0 mph 9.0 mph 91 % 0.00 in 51 W/m2
09:47 42.4 °F 40.0 °F 30.08 in WNW 5.0 mph 8.0 mph 91 % 0.00 in 51 W/m2
09:59 42.8 °F 40.1 °F 30.09 in WNW 6.0 mph 9.0 mph 90 % 0.00 in 51 W/m2
10:07 43.0 °F 40.2 °F 30.09 in NW 7.0 mph 10.0 mph 90 % 0.00 in 47 W/m2
10:15 43.0 °F 40.0 °F 30.10 in NW 6.0 mph 9.0 mph 89 % 0.00 in 53 W/m2
10:24 43.2 °F 39.8 °F 30.10 in NW 6.0 mph 9.0 mph 88 % 0.00 in 56 W/m2
10:38 43.3 °F 39.7 °F 30.11 in NW 6.0 mph 11.0 mph 87 % 0.00 in 49 W/m2
10:44 43.3 °F 39.7 °F 30.11 in NW 7.0 mph 12.0 mph 87 % 0.00 in 53 W/m2
10:55 43.5 °F 39.6 °F 30.12 in NW 8.0 mph 11.0 mph 86 % 0.00 in 62 W/m2
11:04 43.5 °F 39.6 °F 30.12 in NW 7.0 mph 10.0 mph 86 % 0.00 in 79 W/m2
11:11 43.9 °F 40.0 °F 30.12 in NW 6.0 mph 11.0 mph 86 % 0.00 in 77 W/m2
11:30 43.9 °F 39.7 °F 30.12 in NW 7.0 mph 11.0 mph 85 % 0.00 in 54 W/m2
11:45 44.1 °F 39.8 °F 30.12 in NNW 7.0 mph 10.0 mph 85 % 0.00 in 58 W/m2
11:52 44.1 °F 40.1 °F 30.11 in NW 7.0 mph 11.0 mph 86 % 0.00 in 46 W/m2
11:59 44.1 °F 40.1 °F 30.11 in NNW 6.0 mph 9.0 mph 86 % 0.00 in 76 W/m2
12:10 44.2 °F 40.3 °F 30.12 in NW 7.0 mph 10.0 mph 86 % 0.00 in 86 W/m2
12:19 44.4 °F 40.5 °F 30.12 in North 3.0 mph 8.0 mph 86 % 0.00 in 114 W/m2
12:27 44.8 °F 40.8 °F 30.12 in NNW 4.0 mph 9.0 mph 86 % 0.00 in 146 W/m2
12:33 44.8 °F 40.5 °F 30.13 in North 5.0 mph 9.0 mph 85 % 0.00 in 120 W/m2
12:48 44.8 °F 40.5 °F 30.13 in NW 5.0 mph 9.0 mph 85 % 0.00 in 111 W/m2
12:55 44.8 °F 40.8 °F 30.13 in NW 3.0 mph 8.0 mph 86 % 0.00 in 125 W/m2
13:00 45.0 °F 41.0 °F 30.13 in NW 3.0 mph 6.0 mph 86 % 0.00 in 105 W/m2
13:11 45.1 °F 40.9 °F 30.13 in NNW 4.0 mph 8.0 mph 85 % 0.00 in 109 W/m2
13:17 45.1 °F 40.9 °F 30.14 in NNW 3.0 mph 7.0 mph 85 % 0.00 in 153 W/m2
13:26 45.3 °F 41.4 °F 30.13 in NW 2.0 mph 7.0 mph 86 % 0.00 in 267 W/m2
13:33 45.5 °F 41.3 °F 30.14 in North 2.0 mph 4.0 mph 85 % 0.00 in 137 W/m2
13:42 45.7 °F 41.4 °F 30.14 in North 4.0 mph 6.0 mph 85 % 0.00 in 156 W/m2
13:49 45.7 °F 41.4 °F 30.14 in North 2.0 mph 5.0 mph 85 % 0.00 in 107 W/m2
13:58 45.7 °F 41.4 °F 30.14 in NNW 1.0 mph 5.0 mph 85 % 0.00 in 93 W/m2
14:04 45.5 °F 41.6 °F 30.14 in North 2.0 mph 5.0 mph 86 % 0.00 in 86 W/m2
14:11 45.3 °F 41.4 °F 30.15 in North 2.0 mph 5.0 mph 86 % 0.00 in 63 W/m2
14:25 45.1 °F 41.5 °F 30.16 in NW 4.0 mph 7.0 mph 87 % 0.00 in 40 W/m2
14:33 45.1 °F 41.5 °F 30.16 in NNW 4.0 mph 7.0 mph 87 % 0.00 in 32 W/m2
14:47 45.0 °F 41.3 °F 30.17 in NW 3.0 mph 7.0 mph 87 % 0.00 in 11 W/m2
14:53 45.0 °F 41.6 °F 30.17 in NW 5.0 mph 8.0 mph 88 % 0.00 in 12 W/m2
15:05 44.8 °F 41.4 °F 30.18 in NW 5.0 mph 7.0 mph 88 % 0.00 in 7 W/m2
15:10 44.8 °F 41.4 °F 30.18 in NW 2.0 mph 5.0 mph 88 % 0.00 in 5 W/m2
15:16 44.8 °F 41.7 °F 30.18 in WNW 2.0 mph 7.0 mph 89 % 0.00 in 5 W/m2
15:30 44.6 °F 41.8 °F 30.19 in WNW 2.0 mph 6.0 mph 90 % 0.00 in 0 W/m2
15:35 44.4 °F 41.7 °F 30.19 in NW 3.0 mph 6.0 mph 90 % 0.00 in 0 W/m2
15:42 44.4 °F 41.7 °F 30.19 in Calm   2.0 mph 90 % 0.01 in 0 W/m2
15:46 44.2 °F 41.8 °F 30.19 in NW 2.0 mph 4.0 mph 91 % 0.01 in 0 W/m2
16:10 44.1 °F 41.9 °F 30.21 in NW 5.0 mph 8.0 mph 92 % 0.01 in 0 W/m2
16:21 44.1 °F 41.9 °F 30.21 in NW 3.0 mph 5.0 mph 92 % 0.01 in 0 W/m2
16:27 44.1 °F 42.2 °F 30.22 in NW 2.0 mph 5.0 mph 93 % 0.01 in 0 W/m2
16:32 44.1 °F 42.2 °F 30.22 in WNW 3.0 mph 6.0 mph 93 % 0.01 in 0 W/m2
16:45 43.9 °F 42.0 °F 30.22 in NW 2.0 mph 5.0 mph 93 % 0.00 in 0 W/m2
16:51 43.9 °F 42.0 °F 30.23 in NW 3.0 mph 8.0 mph 93 % 0.00 in 0 W/m2
16:56 43.9 °F 42.0 °F 30.23 in NW 3.0 mph 7.0 mph 93 % 0.00 in 0 W/m2
17:02 43.9 °F 42.0 °F 30.23 in NW 3.0 mph 8.0 mph 93 % 0.00 in 0 W/m2
17:09 43.9 °F 42.0 °F 30.23 in NNW 1.0 mph 5.0 mph 93 % 0.00 in 0 W/m2
17:18 43.7 °F 42.1 °F 30.23 in NW 3.0 mph 5.0 mph 94 % 0.00 in 0 W/m2
17:23 43.7 °F 42.1 °F 30.23 in NW 1.0 mph 5.0 mph 94 % 0.00 in 0 W/m2
17:28 43.7 °F 42.1 °F 30.23 in NW 3.0 mph 5.0 mph 94 % 0.00 in 0 W/m2
17:34 43.7 °F 42.1 °F 30.24 in NW 4.0 mph 6.0 mph 94 % 0.00 in 0 W/m2
17:39 43.7 °F 42.1 °F 30.24 in NNW 1.0 mph 2.0 mph 94 % 0.00 in 0 W/m2
17:50 43.9 °F 42.3 °F 30.24 in NNW 1.0 mph 5.0 mph 94 % 0.00 in 0 W/m2
17:58 43.9 °F 42.3 °F 30.24 in North 1.0 mph 6.0 mph 94 % 0.00 in 0 W/m2
18:03 43.9 °F 42.3 °F 30.24 in Calm   4.0 mph 94 % 0.00 in 0 W/m2
18:18 43.7 °F 42.1 °F 30.24 in Calm   1.0 mph 94 % 0.00 in 0 W/m2
18:23 43.7 °F 41.8 °F 30.24 in Calm   1.0 mph 93 % 0.00 in 0 W/m2
18:38 43.7 °F 41.8 °F 30.24 in NNE 1.0 mph 4.0 mph 93 % 0.00 in 0 W/m2
18:47 43.9 °F 42.3 °F 30.24 in Calm   2.0 mph 94 % 0.00 in 0 W/m2
18:52 43.9 °F 42.3 °F 30.24 in NNE 1.0 mph 3.0 mph 94 % 0.00 in 0 W/m2
19:03 43.9 °F 42.3 °F 30.25 in North 2.0 mph 6.0 mph 94 % 0.00 in 0 W/m2
19:28 43.9 °F 42.3 °F 30.26 in NE 1.0 mph 5.0 mph 94 % 0.00 in 0 W/m2
19:35 43.9 °F 42.3 °F 30.26 in Calm   2.0 mph 94 % 0.00 in 0 W/m2
19:45 43.9 °F 42.3 °F 30.27 in Calm   1.0 mph 94 % 0.00 in 0 W/m2
20:02 43.9 °F 42.5 °F 30.27 in North 1.0 mph 4.0 mph 95 % 0.00 in 0 W/m2
20:07 43.9 °F 42.5 °F 30.27 in North 3.0 mph 7.0 mph 95 % 0.00 in 0 W/m2
20:12 43.9 °F 42.5 °F 30.28 in Calm   1.0 mph 95 % 0.00 in 0 W/m2
20:18 43.9 °F 42.5 °F 30.27 in Calm   2.0 mph 95 % 0.00 in 0 W/m2
20:23 43.9 °F 42.5 °F 30.28 in Calm   2.0 mph 95 % 0.00 in 0 W/m2
20:30 43.9 °F 42.5 °F 30.28 in Calm   1.0 mph 95 % 0.00 in 0 W/m2
20:40 43.9 °F 42.5 °F 30.28 in Calm   1.0 mph 95 % 0.00 in 0 W/m2
20:57 43.7 °F 42.4 °F 30.28 in Calm   1.0 mph 95 % 0.00 in 0 W/m2
21:05 43.7 °F 42.4 °F 30.29 in Calm   2.0 mph 95 % 0.00 in 0 W/m2
21:15 43.7 °F 42.4 °F 30.29 in Calm   1.0 mph 95 % 0.00 in 0 W/m2
21:23 43.9 °F 42.5 °F 30.30 in NNW 4.0 mph 7.0 mph 95 % 0.00 in 0 W/m2
21:28 43.9 °F 42.5 °F 30.30 in NNW 1.0 mph 4.0 mph 95 % 0.00 in 0 W/m2
21:37 43.7 °F 42.4 °F 30.30 in Calm     95 % 0.00 in 0 W/m2
21:54 43.5 °F 42.2 °F 30.30 in Calm     95 % 0.00 in 0 W/m2
21:59 43.3 °F 42.0 °F 30.31 in Calm     95 % 0.00 in 0 W/m2
22:00 43.3 °F 42.0 °F 30.31 in Calm     95 % 0.00 in 0 W/m2
22:05 43.3 °F 42.0 °F 30.31 in Calm   2.0 mph 95 % 0.00 in 0 W/m2
22:12 43.3 °F 42.0 °F 30.31 in Calm   2.0 mph 95 % 0.00 in 0 W/m2
22:20 43.3 °F 42.0 °F 30.31 in NNW 1.0 mph 5.0 mph 95 % 0.00 in 0 W/m2
22:33 43.2 °F 41.8 °F 30.30 in Calm   2.0 mph 95 % 0.00 in 0 W/m2
22:34 43.2 °F 41.8 °F 30.31 in Calm   2.0 mph 95 % 0.00 in 0 W/m2
22:46 43.2 °F 41.8 °F 30.30 in Calm   1.0 mph 95 % 0.00 in 0 W/m2
22:54 43.3 °F 42.3 °F 30.30 in Calm     96 % 0.00 in 0 W/m2
22:59 43.3 °F 42.3 °F 30.30 in Calm     96 % 0.00 in 0 W/m2
23:03 43.3 °F 42.3 °F 30.30 in Calm     96 % 0.00 in 0 W/m2
23:16 43.3 °F 42.3 °F 30.30 in Calm     96 % 0.00 in 0 W/m2
23:21 43.3 °F 42.3 °F 30.30 in Calm   2.0 mph 96 % 0.00 in 0 W/m2
23:28 43.3 °F 42.3 °F 30.30 in Calm     96 % 0.00 in 0 W/m2
23:36 43.3 °F 42.3 °F 30.31 in Calm     96 % 0.00 in 0 W/m2
23:41 43.3 °F 42.3 °F 30.30 in Calm     96 % 0.00 in 0 W/m2
23:44 43.3 °F 42.3 °F 30.31 in Calm     96 % 0.00 in 0 W/m2
23:49 43.3 °F 42.3 °F 30.31 in Calm     96 % 0.00 in 0 W/m2
23:54 43.3 °F 42.3 °F 30.31 in Calm     96 % 0.00 in 0 W/m2
Delerius-Weather
Compliments of Weather Underground - 1.75 mb

Data updates at regular intervals.